Time;durP1;ratioP1;P1;durP2;ratioP2;P2;SDS_P1;SDS_P2;PMS_P1;PMS_P2;Temp;Humidity;BMP_temperature;BMP_pressure;BME280_temperature;BME280_humidity;BME280_pressure;Samples;Min_cycle;Max_cycle;Signal;HPM_P1;HPM_P2
2023/08/30 00:00:11;;;;;;;;;;;18.40;90.10;;;;;;5046616;28;19913;-72
2023/08/30 00:02:36;;;;;;;;;;;18.40;90.10;;;;;;5048046;28;20257;-72
2023/08/30 00:05:03;;;;;;;;;;;18.40;90.10;;;;;;5046303;28;19921;-72
2023/08/30 00:07:28;;;;;;;;;;;18.40;90.10;;;;;;5035499;28;19917;-72
2023/08/30 00:09:54;;;;;;;;;;;18.40;90.20;;;;;;5028251;28;20336;-72
2023/08/30 00:12:19;;;;;;;;;;;18.40;90.20;;;;;;5028294;28;19913;-72
2023/08/30 00:14:45;;;;;;;;;;;18.30;90.10;;;;;;5027472;28;19913;-72
2023/08/30 00:17:10;;;;;;;;;;;18.30;90.20;;;;;;5028081;28;20398;-72
2023/08/30 00:19:36;;;;;;;;;;;18.30;90.30;;;;;;5043832;28;19912;-72
2023/08/30 00:22:01;;;;;;;;;;;18.20;90.20;;;;;;5048145;28;19920;-72
2023/08/30 00:24:28;;;;;;;;;;;18.20;90.20;;;;;;5048231;28;19958;-72
2023/08/30 00:26:53;;;;;;;;;;;18.20;90.20;;;;;;5047896;28;19913;-72
2023/08/30 00:29:19;;;;;;;;;;;18.20;90.30;;;;;;5047416;28;20369;-72
2023/08/30 00:31:45;;;;;;;;;;;18.20;90.40;;;;;;5047644;28;19919;-72
2023/08/30 00:34:10;;;;;;;;;;;18.10;90.40;;;;;;5047487;28;19917;-72
2023/08/30 00:36:36;;;;;;;;;;;18.10;90.30;;;;;;5048843;28;19913;-72
2023/08/30 00:39:02;;;;;;;;;;;18.10;90.40;;;;;;5051438;28;19913;-72
2023/08/30 00:41:27;;;;;;;;;;;18.10;90.40;;;;;;5050266;28;20412;-72
2023/08/30 00:43:53;;;;;;;;;;;18.00;90.30;;;;;;5051246;28;19913;-72
2023/08/30 00:46:18;;;;;;;;;;;18.00;90.40;;;;;;5050275;28;19915;-72
2023/08/30 00:48:44;;;;;;;;;;;18.00;90.40;;;;;;5050252;28;19947;-72
2023/08/30 00:51:10;;;;;;;;;;;18.00;90.40;;;;;;5051722;28;20403;-72
2023/08/30 00:53:35;;;;;;;;;;;17.90;90.40;;;;;;5051201;28;19955;-72
2023/08/30 00:56:01;;;;;;;;;;;17.90;90.40;;;;;;5036393;28;19978;-72
2023/08/30 00:58:27;;;;;;;;;;;17.90;90.60;;;;;;5030795;28;19920;-72
2023/08/30 01:00:53;;;;;;;;;;;17.90;90.60;;;;;;5031455;28;20450;-72
2023/08/30 01:03:20;;;;;;;;;;;17.90;90.50;;;;;;5031221;28;19910;-72
2023/08/30 01:05:45;;;;;;;;;;;17.80;90.50;;;;;;5040816;28;20338;-72
2023/08/30 01:08:11;;;;;;;;;;;17.80;90.50;;;;;;5050688;28;19913;-72
2023/08/30 01:10:43;;;;;;;;;;;17.80;90.90;;;;;;5051094;28;20250;-72
2023/08/30 01:13:09;;;;;;;;;;;17.80;90.70;;;;;;5051124;28;19924;-72
2023/08/30 01:15:35;;;;;;;;;;;17.70;90.60;;;;;;5050924;28;19912;-72
2023/08/30 01:18:04;;;;;;;;;;;17.70;90.60;;;;;;5050464;28;19909;-72
2023/08/30 01:20:33;;;;;;;;;;;17.70;90.60;;;;;;5049483;28;19924;-72
2023/08/30 01:23:00;;;;;;;;;;;17.70;90.80;;;;;;5050463;28;19917;-72
2023/08/30 01:25:26;;;;;;;;;;;17.60;90.70;;;;;;5049173;28;19909;-72
2023/08/30 01:27:52;;;;;;;;;;;17.60;90.70;;;;;;5050022;28;19916;-72
2023/08/30 01:30:18;;;;;;;;;;;17.60;90.70;;;;;;5050599;28;19909;-72
2023/08/30 01:32:44;;;;;;;;;;;17.60;90.80;;;;;;5048769;28;19973;-72
2023/08/30 01:35:10;;;;;;;;;;;17.60;90.70;;;;;;5050021;28;20008;-72
2023/08/30 01:37:36;;;;;;;;;;;17.50;90.70;;;;;;5049492;28;19923;-72
2023/08/30 01:40:04;;;;;;;;;;;17.50;90.80;;;;;;5048068;28;20316;-72
2023/08/30 01:42:30;;;;;;;;;;;17.50;90.90;;;;;;5049936;28;19939;-72
2023/08/30 01:44:57;;;;;;;;;;;17.50;90.90;;;;;;5050026;28;20251;-72
2023/08/30 01:47:24;;;;;;;;;;;17.50;90.80;;;;;;5037265;28;19972;-74
2023/08/30 01:49:49;;;;;;;;;;;17.40;90.80;;;;;;5039235;28;19920;-75
2023/08/30 01:52:15;;;;;;;;;;;17.40;91.00;;;;;;5050122;28;19919;-75
2023/08/30 01:54:40;;;;;;;;;;;17.40;90.90;;;;;;5050031;28;19916;-75
2023/08/30 01:57:06;;;;;;;;;;;17.40;90.90;;;;;;5033569;28;19913;-75
2023/08/30 01:59:32;;;;;;;;;;;17.30;91.00;;;;;;5038448;28;20354;-75
2023/08/30 02:01:57;;;;;;;;;;;17.40;90.90;;;;;;5048583;28;19913;-75
2023/08/30 02:04:23;;;;;;;;;;;17.30;90.90;;;;;;5050072;28;19913;-75
2023/08/30 02:06:53;;;;;;;;;;;17.30;91.00;;;;;;5049785;28;19999;-75
2023/08/30 02:09:24;;;;;;;;;;;17.30;91.10;;;;;;5050025;28;19909;-75
2023/08/30 02:11:50;;;;;;;;;;;17.30;91.10;;;;;;5050052;28;19912;-75
2023/08/30 02:14:17;;;;;;;;;;;17.30;91.00;;;;;;5049923;28;19928;-75
2023/08/30 02:16:44;;;;;;;;;;;17.30;91.10;;;;;;5049675;28;19913;-75
2023/08/30 02:19:11;;;;;;;;;;;17.30;91.10;;;;;;5048013;28;20353;-72
2023/08/30 02:21:37;;;;;;;;;;;17.20;91.10;;;;;;5049935;28;20349;-72
2023/08/30 02:24:03;;;;;;;;;;;17.30;91.00;;;;;;5047969;28;19917;-72
2023/08/30 02:26:28;;;;;;;;;;;17.20;91.20;;;;;;5048377;28;20361;-72
2023/08/30 02:28:54;;;;;;;;;;;17.20;91.10;;;;;;5049499;28;19921;-72
2023/08/30 02:31:19;;;;;;;;;;;17.20;91.10;;;;;;5041246;28;19919;-72
2023/08/30 02:33:45;;;;;;;;;;;17.20;91.10;;;;;;5049530;28;19917;-72
2023/08/30 02:36:10;;;;;;;;;;;17.20;91.20;;;;;;5049837;28;20003;-72
2023/08/30 02:38:36;;;;;;;;;;;17.20;91.10;;;;;;5049324;28;19939;-72
2023/08/30 02:41:01;;;;;;;;;;;17.10;91.20;;;;;;5049287;28;19978;-72
2023/08/30 02:43:27;;;;;;;;;;;17.10;91.20;;;;;;5047860;28;19913;-72
2023/08/30 02:45:53;;;;;;;;;;;17.10;91.30;;;;;;5049357;28;19913;-72
2023/08/30 02:48:18;;;;;;;;;;;17.10;91.30;;;;;;5047642;28;19920;-72
2023/08/30 02:50:44;;;;;;;;;;;17.10;91.30;;;;;;5049365;28;19912;-72
2023/08/30 02:53:09;;;;;;;;;;;17.10;91.30;;;;;;5049329;28;19916;-72
2023/08/30 02:55:35;;;;;;;;;;;17.10;91.30;;;;;;5038542;28;19970;-72
2023/08/30 02:58:01;;;;;;;;;;;17.10;91.40;;;;;;5044003;28;20633;-72
2023/08/30 03:00:26;;;;;;;;;;;17.10;91.40;;;;;;5047877;28;19921;-72
2023/08/30 03:02:52;;;;;;;;;;;17.00;91.40;;;;;;5047816;28;19935;-72
2023/08/30 03:05:18;;;;;;;;;;;17.00;91.30;;;;;;5049055;28;19913;-72
2023/08/30 03:07:43;;;;;;;;;;;17.00;91.40;;;;;;5048724;28;19912;-72
2023/08/30 03:10:09;;;;;;;;;;;17.00;91.40;;;;;;5048799;28;19913;-72
2023/08/30 03:12:34;;;;;;;;;;;17.00;91.40;;;;;;5048808;28;20631;-72
2023/08/30 03:15:00;;;;;;;;;;;17.00;91.50;;;;;;5048531;28;19952;-72
2023/08/30 03:17:26;;;;;;;;;;;16.90;91.50;;;;;;5048459;28;19931;-72
2023/08/30 03:19:53;;;;;;;;;;;16.90;91.50;;;;;;5047706;28;19959;-72
2023/08/30 03:22:18;;;;;;;;;;;16.90;91.40;;;;;;5046483;28;19921;-72
2023/08/30 03:24:44;;;;;;;;;;;16.90;91.50;;;;;;5047589;28;20034;-72
2023/08/30 03:27:09;;;;;;;;;;;16.90;91.50;;;;;;5047073;28;19913;-72
2023/08/30 03:29:35;;;;;;;;;;;16.90;91.50;;;;;;5047620;28;19916;-72
2023/08/30 03:32:00;;;;;;;;;;;16.90;91.50;;;;;;5046927;28;19982;-72
2023/08/30 03:34:26;;;;;;;;;;;16.90;91.50;;;;;;5048349;28;19951;-72
2023/08/30 03:36:54;;;;;;;;;;;16.90;91.50;;;;;;5048403;28;19959;-72
2023/08/30 03:39:23;;;;;;;;;;;16.80;91.50;;;;;;5048083;28;20385;-72
2023/08/30 03:41:49;;;;;;;;;;;16.80;91.50;;;;;;5048387;28;20021;-72
2023/08/30 03:44:14;;;;;;;;;;;16.80;91.60;;;;;;5048000;28;20374;-72
2023/08/30 03:46:40;;;;;;;;;;;16.80;91.60;;;;;;5046995;28;20516;-72
2023/08/30 03:49:05;;;;;;;;;;;16.80;91.60;;;;;;5047702;28;19916;-72
2023/08/30 03:51:31;;;;;;;;;;;16.70;91.60;;;;;;5047677;28;19931;-72
2023/08/30 03:53:56;;;;;;;;;;;16.70;91.60;;;;;;5033254;28;19949;-72
2023/08/30 03:56:22;;;;;;;;;;;16.70;91.50;;;;;;5034888;28;20647;-72
2023/08/30 03:58:48;;;;;;;;;;;16.70;91.60;;;;;;5044586;28;19913;-72
2023/08/30 04:01:13;;;;;;;;;;;16.70;91.60;;;;;;5046716;28;20296;-72
2023/08/30 04:03:39;;;;;;;;;;;16.70;91.60;;;;;;5046803;28;20331;-72
2023/08/30 04:06:04;;;;;;;;;;;16.70;91.60;;;;;;5047056;28;20324;-72
2023/08/30 04:08:30;;;;;;;;;;;16.60;91.60;;;;;;5047093;28;19913;-72
2023/08/30 04:10:55;;;;;;;;;;;16.60;91.60;;;;;;5047787;28;19916;-72
2023/08/30 04:13:21;;;;;;;;;;;16.60;91.60;;;;;;5052073;28;19912;-72
2023/08/30 04:15:47;;;;;;;;;;;16.60;91.60;;;;;;5052018;28;20428;-72
2023/08/30 04:18:12;;;;;;;;;;;16.60;91.60;;;;;;5051877;28;19958;-72
2023/08/30 04:20:43;;;;;;;;;;;16.60;91.60;;;;;;5051996;28;19924;-72
2023/08/30 04:23:08;;;;;;;;;;;16.60;91.90;;;;;;5052023;28;19912;-72
2023/08/30 04:25:34;;;;;;;;;;;16.50;91.60;;;;;;5052224;28;19924;-72
2023/08/30 04:28:02;;;;;;;;;;;16.50;91.80;;;;;;5049799;28;20020;-72
2023/08/30 04:30:28;;;;;;;;;;;16.50;91.60;;;;;;5051753;28;19916;-72
2023/08/30 04:32:53;;;;;;;;;;;16.50;91.60;;;;;;5051455;28;20455;-72
2023/08/30 04:35:20;;;;;;;;;;;16.50;91.70;;;;;;5051217;28;20308;-72
2023/08/30 04:37:46;;;;;;;;;;;16.50;91.60;;;;;;5051463;28;20001;-72
2023/08/30 04:40:12;;;;;;;;;;;16.50;91.70;;;;;;5051511;28;19914;-72
2023/08/30 04:42:39;;;;;;;;;;;16.50;91.60;;;;;;5051978;28;19912;-72
2023/08/30 04:45:05;;;;;;;;;;;16.40;91.60;;;;;;5051559;28;19912;-72
2023/08/30 04:47:31;;;;;;;;;;;16.50;91.70;;;;;;5051166;28;20428;-72
2023/08/30 04:49:57;;;;;;;;;;;16.40;91.70;;;;;;5050804;28;19948;-72
2023/08/30 04:52:22;;;;;;;;;;;16.40;91.70;;;;;;5033925;28;19967;-72
2023/08/30 04:54:48;;;;;;;;;;;16.40;91.70;;;;;;5031005;28;20546;-72
2023/08/30 04:57:16;;;;;;;;;;;16.40;91.70;;;;;;5065038;28;19910;-72
2023/08/30 04:59:44;;;;;;;;;;;16.40;91.70;;;;;;5050924;28;20347;-72
2023/08/30 05:02:10;;;;;;;;;;;16.40;91.70;;;;;;5051385;28;19917;-72
2023/08/30 05:04:36;;;;;;;;;;;16.30;91.70;;;;;;5048924;28;19923;-72
2023/08/30 05:07:02;;;;;;;;;;;16.30;91.70;;;;;;5051119;28;20683;-72
2023/08/30 05:09:28;;;;;;;;;;;16.40;92.00;;;;;;5051047;28;19913;-72
2023/08/30 05:11:53;;;;;;;;;;;16.30;91.70;;;;;;5049728;28;19909;-72
2023/08/30 05:14:19;;;;;;;;;;;16.30;91.70;;;;;;5050845;28;19912;-72
2023/08/30 05:16:54;;;;;;;;;;;16.30;91.70;;;;;;5049895;28;19952;-72
2023/08/30 05:19:19;;;;;;;;;;;16.30;91.70;;;;;;5035755;28;20031;-72
2023/08/30 05:21:46;;;;;;;;;;;16.30;91.70;;;;;;5033210;28;20050;-72
2023/08/30 05:24:11;;;;;;;;;;;16.30;91.80;;;;;;5034268;28;20393;-72
2023/08/30 05:26:37;;;;;;;;;;;16.30;91.70;;;;;;5050748;28;20016;-71
2023/08/30 05:29:03;;;;;;;;;;;16.30;91.70;;;;;;5048814;28;19967;-72
2023/08/30 05:31:28;;;;;;;;;;;16.30;91.80;;;;;;5050365;28;20270;-72
2023/08/30 05:33:54;;;;;;;;;;;16.30;91.80;;;;;;5050229;28;19920;-72
2023/08/30 05:36:20;;;;;;;;;;;16.30;91.70;;;;;;5046946;28;19921;-72
2023/08/30 05:38:45;;;;;;;;;;;16.20;91.80;;;;;;5048710;28;19941;-72
2023/08/30 05:41:11;;;;;;;;;;;16.30;91.70;;;;;;5049159;28;19920;-72
2023/08/30 05:43:36;;;;;;;;;;;16.20;91.70;;;;;;5050132;28;19970;-72
2023/08/30 05:46:02;;;;;;;;;;;16.20;91.70;;;;;;5049016;28;19913;-72
2023/08/30 05:48:28;;;;;;;;;;;16.20;91.70;;;;;;5049998;28;19982;-72
2023/08/30 05:50:54;;;;;;;;;;;16.20;91.80;;;;;;5050092;28;19916;-72
2023/08/30 05:53:19;;;;;;;;;;;16.20;91.80;;;;;;5048766;28;19913;-72
2023/08/30 05:55:45;;;;;;;;;;;16.20;91.80;;;;;;5049856;28;19913;-72
2023/08/30 05:58:10;;;;;;;;;;;16.20;91.80;;;;;;5043427;28;19913;-72
2023/08/30 06:00:36;;;;;;;;;;;16.20;91.80;;;;;;5047687;28;19920;-72
2023/08/30 06:03:02;;;;;;;;;;;16.20;91.80;;;;;;5049934;28;19908;-72
2023/08/30 06:05:28;;;;;;;;;;;16.20;91.80;;;;;;5050189;28;19912;-72
2023/08/30 06:07:54;;;;;;;;;;;16.20;91.80;;;;;;5048225;28;20014;-72
2023/08/30 06:10:19;;;;;;;;;;;16.20;91.80;;;;;;5049722;28;20007;-72
2023/08/30 06:12:45;;;;;;;;;;;16.20;91.80;;;;;;5050322;28;19913;-72
2023/08/30 06:15:10;;;;;;;;;;;16.20;91.80;;;;;;5049590;28;19913;-73
2023/08/30 06:17:36;;;;;;;;;;;16.20;91.80;;;;;;5049600;28;19965;-72
2023/08/30 06:20:02;;;;;;;;;;;16.20;91.80;;;;;;5048044;28;20008;-72
2023/08/30 06:22:28;;;;;;;;;;;16.20;91.80;;;;;;5049933;28;19913;-72
2023/08/30 06:24:53;;;;;;;;;;;16.20;91.80;;;;;;5049677;28;19920;-72
2023/08/30 06:27:19;;;;;;;;;;;16.20;91.80;;;;;;5049432;28;20246;-72
2023/08/30 06:29:44;;;;;;;;;;;16.20;91.80;;;;;;5040909;28;19995;-72
2023/08/30 06:32:10;;;;;;;;;;;16.20;91.80;;;;;;5038501;28;19916;-72
2023/08/30 06:34:35;;;;;;;;;;;16.20;91.80;;;;;;5045766;28;20277;-72
2023/08/30 06:37:01;;;;;;;;;;;16.20;91.80;;;;;;5049335;28;20008;-72
2023/08/30 06:39:32;;;;;;;;;;;16.20;91.80;;;;;;5049037;28;20257;-72
2023/08/30 06:41:57;;;;;;;;;;;16.30;91.80;;;;;;5049608;28;19919;-72
2023/08/30 06:44:23;;;;;;;;;;;16.30;91.80;;;;;;5049084;28;19913;-72
2023/08/30 06:46:48;;;;;;;;;;;16.20;91.80;;;;;;5047824;28;20274;-72
2023/08/30 06:49:14;;;;;;;;;;;16.30;91.80;;;;;;5046774;28;19998;-72
2023/08/30 06:51:39;;;;;;;;;;;16.30;91.80;;;;;;5049268;28;19967;-72
2023/08/30 06:54:05;;;;;;;;;;;16.30;91.80;;;;;;5048680;28;19920;-72
2023/08/30 06:56:30;;;;;;;;;;;16.30;91.80;;;;;;5036291;28;20437;-72
2023/08/30 06:58:56;;;;;;;;;;;16.30;91.70;;;;;;5037942;28;19978;-72
2023/08/30 07:01:21;;;;;;;;;;;16.30;91.70;;;;;;5049032;28;20411;-72
2023/08/30 07:03:47;;;;;;;;;;;16.40;91.70;;;;;;5048834;28;20579;-71
2023/08/30 07:06:12;;;;;;;;;;;16.40;91.70;;;;;;5048556;28;19924;-72
2023/08/30 07:08:38;;;;;;;;;;;16.40;91.70;;;;;;5047077;28;20280;-72
2023/08/30 07:11:04;;;;;;;;;;;16.40;91.60;;;;;;5047264;28;19913;-72
2023/08/30 07:13:30;;;;;;;;;;;16.40;91.60;;;;;;5048624;28;20308;-71
2023/08/30 07:15:55;;;;;;;;;;;16.50;91.70;;;;;;5048841;28;20003;-72
2023/08/30 07:18:21;;;;;;;;;;;16.50;91.70;;;;;;5048585;28;19923;-72
2023/08/30 07:20:46;;;;;;;;;;;16.50;91.60;;;;;;5048711;28;19916;-72
2023/08/30 07:23:12;;;;;;;;;;;16.50;91.90;;;;;;5047102;28;19916;-72
2023/08/30 07:25:38;;;;;;;;;;;16.50;91.60;;;;;;5048464;28;19913;-72
2023/08/30 07:28:04;;;;;;;;;;;16.60;91.60;;;;;;5047969;28;19944;-72
2023/08/30 07:30:29;;;;;;;;;;;16.60;91.50;;;;;;5047242;28;20470;-72
2023/08/30 07:32:55;;;;;;;;;;;16.60;91.50;;;;;;5048979;28;19913;-72
2023/08/30 07:35:20;;;;;;;;;;;16.60;91.50;;;;;;5048427;28;19923;-72
2023/08/30 07:37:46;;;;;;;;;;;16.60;91.50;;;;;;5048555;28;19909;-72
2023/08/30 07:40:12;;;;;;;;;;;16.70;91.50;;;;;;5047973;28;20012;-72
2023/08/30 07:42:38;;;;;;;;;;;16.70;91.50;;;;;;5048775;28;19913;-72
2023/08/30 07:45:04;;;;;;;;;;;16.70;91.50;;;;;;5048018;28;19919;-72
2023/08/30 07:47:29;;;;;;;;;;;16.70;91.50;;;;;;5046089;28;19932;-72
2023/08/30 07:49:55;;;;;;;;;;;16.80;91.40;;;;;;5042091;28;19944;-72
2023/08/30 07:52:20;;;;;;;;;;;16.80;91.50;;;;;;5028631;28;19940;-72
2023/08/30 07:54:46;;;;;;;;;;;16.80;91.40;;;;;;5029621;28;19959;-72
2023/08/30 07:57:11;;;;;;;;;;;16.80;91.40;;;;;;5029378;28;19913;-72
2023/08/30 07:59:37;;;;;;;;;;;16.80;91.40;;;;;;5042971;28;19912;-72
2023/08/30 08:02:08;;;;;;;;;;;16.90;91.40;;;;;;5046656;28;20293;-72
2023/08/30 08:04:34;;;;;;;;;;;16.90;91.30;;;;;;5063180;28;20533;-72
2023/08/30 08:07:00;;;;;;;;;;;17.00;91.30;;;;;;5047518;28;19913;-72
2023/08/30 08:09:25;;;;;;;;;;;17.00;91.30;;;;;;5042201;28;20330;-72
2023/08/30 08:11:51;;;;;;;;;;;17.00;91.30;;;;;;5028224;28;20445;-72
2023/08/30 08:14:17;;;;;;;;;;;17.00;91.20;;;;;;5027668;28;19924;-71
2023/08/30 08:16:42;;;;;;;;;;;17.10;91.20;;;;;;5031719;28;19959;-72
2023/08/30 08:19:08;;;;;;;;;;;17.10;91.20;;;;;;5047335;28;20344;-72
2023/08/30 08:21:33;;;;;;;;;;;17.10;91.20;;;;;;5048004;28;19916;-72
2023/08/30 08:23:59;;;;;;;;;;;17.20;91.10;;;;;;5048055;28;19908;-72
2023/08/30 08:26:25;;;;;;;;;;;17.20;91.10;;;;;;5047844;28;19917;-72
2023/08/30 08:28:50;;;;;;;;;;;17.20;91.10;;;;;;5047202;28;19913;-72
2023/08/30 08:31:16;;;;;;;;;;;17.20;91.10;;;;;;5047864;28;19935;-72
2023/08/30 08:33:41;;;;;;;;;;;17.30;91.00;;;;;;5047193;28;19920;-72
2023/08/30 08:36:07;;;;;;;;;;;17.30;91.00;;;;;;5048002;28;20669;-72
2023/08/30 08:38:32;;;;;;;;;;;17.30;91.00;;;;;;5038481;28;19919;-72
2023/08/30 08:41:03;;;;;;;;;;;17.40;90.90;;;;;;5037134;28;19920;-72
2023/08/30 08:43:29;;;;;;;;;;;17.40;90.90;;;;;;5037460;28;19914;-72
2023/08/30 08:45:59;;;;;;;;;;;17.50;90.90;;;;;;5047769;28;20011;-72
2023/08/30 08:48:25;;;;;;;;;;;17.50;90.80;;;;;;5047082;28;20383;-72
2023/08/30 08:50:51;;;;;;;;;;;17.60;90.80;;;;;;5047304;28;19970;-72
2023/08/30 08:53:16;;;;;;;;;;;17.60;90.70;;;;;;5047785;28;19909;-72
2023/08/30 08:55:42;;;;;;;;;;;17.70;90.70;;;;;;5041123;28;20422;-72
2023/08/30 08:58:08;;;;;;;;;;;17.80;90.60;;;;;;5033591;28;19912;-72
2023/08/30 09:00:34;;;;;;;;;;;17.90;90.50;;;;;;5051367;28;20004;-72
2023/08/30 09:03:00;;;;;;;;;;;17.90;90.70;;;;;;5050168;28;19917;-72
2023/08/30 09:05:26;;;;;;;;;;;18.00;90.40;;;;;;5050880;28;19960;-72
2023/08/30 09:07:53;;;;;;;;;;;18.10;90.30;;;;;;5046775;28;20028;-72
2023/08/30 09:10:20;;;;;;;;;;;18.20;90.30;;;;;;5038283;28;19927;-72
2023/08/30 09:12:45;;;;;;;;;;;18.30;90.20;;;;;;5041642;28;19966;-72
2023/08/30 09:15:11;;;;;;;;;;;18.30;90.20;;;;;;5046352;28;19924;-72
2023/08/30 09:17:37;;;;;;;;;;;18.40;90.10;;;;;;5050838;28;19919;-72
2023/08/30 09:20:09;;;;;;;;;;;18.50;90.00;;;;;;5048871;28;19917;-72
2023/08/30 09:22:41;;;;;;;;;;;18.60;90.00;;;;;;5031241;28;19952;-72
2023/08/30 09:25:11;;;;;;;;;;;18.60;90.00;;;;;;5031011;28;19966;-72
2023/08/30 09:27:38;;;;;;;;;;;18.60;89.80;;;;;;5046268;28;19913;-72
2023/08/30 09:30:05;;;;;;;;;;;18.70;89.80;;;;;;5048838;28;19912;-72
2023/08/30 09:32:31;;;;;;;;;;;18.70;89.70;;;;;;5050957;28;19912;-72
2023/08/30 09:34:56;;;;;;;;;;;18.80;89.60;;;;;;5050697;28;20681;-72
2023/08/30 09:37:22;;;;;;;;;;;18.80;89.40;;;;;;5050309;28;19970;-72
2023/08/30 09:39:48;;;;;;;;;;;18.90;89.60;;;;;;5050346;28;19909;-72
2023/08/30 09:42:16;;;;;;;;;;;18.90;89.40;;;;;;5048612;28;20354;-72
2023/08/30 09:44:41;;;;;;;;;;;19.00;89.20;;;;;;5049741;28;19909;-72
2023/08/30 09:47:07;;;;;;;;;;;19.10;89.10;;;;;;5050392;28;19913;-72
2023/08/30 09:49:38;;;;;;;;;;;19.20;88.80;;;;;;5049965;28;19927;-72
2023/08/30 09:52:08;;;;;;;;;;;19.20;88.90;;;;;;5050542;28;19954;-72
2023/08/30 09:54:34;;;;;;;;;;;19.30;88.80;;;;;;5049957;28;19917;-72
2023/08/30 09:57:00;;;;;;;;;;;19.30;88.60;;;;;;5036645;28;20090;-72
2023/08/30 09:59:26;;;;;;;;;;;19.30;88.70;;;;;;5045199;28;19909;-72
2023/08/30 10:01:52;;;;;;;;;;;19.40;88.80;;;;;;5041400;28;19917;-72
2023/08/30 10:04:19;;;;;;;;;;;19.40;88.80;;;;;;5046630;28;19932;-72
2023/08/30 10:06:45;;;;;;;;;;;19.30;88.50;;;;;;5046788;28;19935;-72
2023/08/30 10:09:10;;;;;;;;;;;19.30;88.80;;;;;;5037499;28;19925;-72
2023/08/30 10:11:37;;;;;;;;;;;19.20;89.20;;;;;;5039217;28;20050;-72
2023/08/30 10:14:03;;;;;;;;;;;19.20;89.40;;;;;;5039649;28;19916;-72
2023/08/30 10:16:30;;;;;;;;;;;19.10;89.40;;;;;;5048695;28;20011;-72
2023/08/30 10:19:01;;;;;;;;;;;19.10;89.60;;;;;;5048285;28;20282;-72
2023/08/30 10:21:27;;;;;;;;;;;19.00;90.00;;;;;;5049043;28;19923;-72
2023/08/30 10:23:55;;;;;;;;;;;19.00;90.00;;;;;;5050004;28;19920;-72
2023/08/30 10:26:23;;;;;;;;;;;19.00;89.90;;;;;;5048118;28;19908;-72
2023/08/30 10:28:48;;;;;;;;;;;19.00;90.00;;;;;;5042861;28;19921;-73
2023/08/30 10:31:14;;;;;;;;;;;19.00;90.00;;;;;;5056273;28;20092;-73
2023/08/30 10:33:55;;;;;;;;;;;19.00;90.00;;;;;;5042809;28;19995;-72
2023/08/30 10:36:22;;;;;;;;;;;19.00;90.10;;;;;;5063742;28;19925;-72
2023/08/30 10:38:51;;;;;;;;;;;19.00;90.20;;;;;;5047296;28;19919;-72
2023/08/30 10:41:24;;;;;;;;;;;18.90;90.20;;;;;;5048206;28;20013;-72
2023/08/30 10:43:51;;;;;;;;;;;18.90;90.30;;;;;;5048254;28;19913;-72
2023/08/30 10:46:17;;;;;;;;;;;18.90;90.30;;;;;;5049418;28;19909;-72
2023/08/30 10:48:43;;;;;;;;;;;19.00;90.30;;;;;;5048636;28;19921;-72
2023/08/30 10:51:22;;;;;;;;;;;19.00;90.30;;;;;;5049391;28;19931;-72
2023/08/30 10:53:59;;;;;;;;;;;19.00;90.30;;;;;;5049175;28;19936;-72
2023/08/30 10:56:29;;;;;;;;;;;18.90;90.30;;;;;;5030827;28;19913;-72
2023/08/30 10:58:54;;;;;;;;;;;18.90;90.30;;;;;;5053190;28;19986;-72
2023/08/30 11:01:20;;;;;;;;;;;18.90;90.40;;;;;;5049120;28;19920;-72
2023/08/30 11:03:46;;;;;;;;;;;18.90;90.40;;;;;;5048896;28;19956;-72
2023/08/30 11:06:14;;;;;;;;;;;18.90;90.40;;;;;;5048865;28;19912;-72
2023/08/30 11:08:41;;;;;;;;;;;18.90;90.50;;;;;;5048596;28;19923;-72
2023/08/30 11:11:08;;;;;;;;;;;18.90;90.50;;;;;;5047790;28;19909;-72
2023/08/30 11:13:34;;;;;;;;;;;18.90;90.50;;;;;;5048957;28;19974;-72
2023/08/30 11:16:04;;;;;;;;;;;18.80;90.50;;;;;;5046496;28;19920;-72
2023/08/30 11:18:29;;;;;;;;;;;18.80;90.60;;;;;;5035892;28;19913;-72
2023/08/30 11:21:01;;;;;;;;;;;18.80;90.60;;;;;;5038705;28;19928;-72
2023/08/30 11:23:27;;;;;;;;;;;18.80;90.70;;;;;;5048458;28;19913;-73
2023/08/30 11:25:53;;;;;;;;;;;18.70;90.70;;;;;;5048161;28;19923;-72
2023/08/30 11:28:22;;;;;;;;;;;18.70;91.10;;;;;;5047032;28;19917;-72
2023/08/30 11:30:47;;;;;;;;;;;18.70;90.80;;;;;;5048280;28;19996;-73
2023/08/30 11:33:13;;;;;;;;;;;18.70;90.90;;;;;;5048479;28;20372;-73
2023/08/30 11:35:38;;;;;;;;;;;18.60;91.10;;;;;;5047052;28;19913;-73
2023/08/30 11:38:04;;;;;;;;;;;18.60;90.90;;;;;;5035408;28;19916;-72
2023/08/30 11:40:32;;;;;;;;;;;18.60;90.80;;;;;;5046742;28;20023;-73
2023/08/30 11:42:57;;;;;;;;;;;18.60;90.80;;;;;;5048219;28;19924;-73
2023/08/30 11:45:23;;;;;;;;;;;18.60;90.80;;;;;;5047834;28;19913;-73
2023/08/30 11:47:48;;;;;;;;;;;18.60;90.80;;;;;;5047787;28;20615;-73
2023/08/30 11:50:14;;;;;;;;;;;18.60;90.90;;;;;;5047697;28;19963;-73
2023/08/30 11:52:40;;;;;;;;;;;18.60;91.00;;;;;;5044934;28;20015;-73
2023/08/30 11:55:07;;;;;;;;;;;18.50;90.90;;;;;;5040873;28;19909;-73
2023/08/30 11:57:36;;;;;;;;;;;18.50;91.10;;;;;;5047543;28;19920;-73
2023/08/30 12:00:11;;;;;;;;;;;18.50;91.00;;;;;;5047554;28;20404;-73
2023/08/30 12:02:37;;;;;;;;;;;18.40;91.00;;;;;;5047976;28;20293;-73
2023/08/30 12:05:03;;;;;;;;;;;18.40;91.10;;;;;;5048122;28;19915;-73
2023/08/30 12:07:30;;;;;;;;;;;18.40;91.00;;;;;;5037343;28;19972;-73
2023/08/30 12:10:05;;;;;;;;;;;18.40;91.10;;;;;;5036626;28;20000;-73
2023/08/30 12:12:31;;;;;;;;;;;18.40;91.10;;;;;;5035458;28;19917;-73
2023/08/30 12:14:56;;;;;;;;;;;18.40;91.20;;;;;;5029928;28;20373;-73
2023/08/30 12:17:22;;;;;;;;;;;18.40;91.10;;;;;;5027399;28;20505;-73
2023/08/30 12:19:57;;;;;;;;;;;18.40;91.10;;;;;;5026966;28;19920;-72
2023/08/30 12:22:23;;;;;;;;;;;18.40;91.20;;;;;;5027305;28;19952;-72
2023/08/30 12:24:48;;;;;;;;;;;18.40;91.20;;;;;;5027199;28;19981;-72
2023/08/30 12:27:14;;;;;;;;;;;18.40;91.20;;;;;;5039415;28;20404;-72
2023/08/30 12:29:40;;;;;;;;;;;18.40;91.20;;;;;;5046232;28;19924;-72
2023/08/30 12:32:06;;;;;;;;;;;18.40;91.20;;;;;;5047218;28;19912;-72
2023/08/30 12:34:32;;;;;;;;;;;18.30;91.30;;;;;;5050797;28;20281;-73
2023/08/30 12:36:57;;;;;;;;;;;18.30;91.40;;;;;;5051132;28;19959;-76
2023/08/30 12:39:23;;;;;;;;;;;18.20;91.40;;;;;;5050481;28;19913;-76
2023/08/30 12:41:48;;;;;;;;;;;18.20;91.50;;;;;;5044127;28;19971;-76
2023/08/30 12:44:14;;;;;;;;;;;18.20;91.40;;;;;;5035918;28;19913;-76
2023/08/30 12:46:39;;;;;;;;;;;18.30;91.40;;;;;;5041356;28;19963;-76
2023/08/30 12:49:05;;;;;;;;;;;18.30;91.40;;;;;;5029059;28;19921;-76
2023/08/30 12:51:30;;;;;;;;;;;18.30;91.40;;;;;;5048228;28;19912;-76
2023/08/30 12:53:56;;;;;;;;;;;18.30;91.40;;;;;;5050225;28;19958;-76
2023/08/30 12:56:22;;;;;;;;;;;18.30;91.40;;;;;;5041988;28;20385;-75
2023/08/30 12:58:47;;;;;;;;;;;18.30;91.50;;;;;;5047643;28;19924;-76
2023/08/30 13:01:13;;;;;;;;;;;18.30;91.50;;;;;;5041349;28;19927;-76
2023/08/30 13:03:38;;;;;;;;;;;18.40;91.50;;;;;;5042209;28;20049;-76
2023/08/30 13:06:04;;;;;;;;;;;18.40;91.50;;;;;;5035521;28;20425;-76
2023/08/30 13:08:29;;;;;;;;;;;18.40;91.50;;;;;;5048602;28;19913;-76
2023/08/30 13:10:55;;;;;;;;;;;18.40;91.50;;;;;;5050369;28;19924;-76
2023/08/30 13:13:21;;;;;;;;;;;18.40;91.40;;;;;;5050041;28;19936;-76
2023/08/30 13:15:48;;;;;;;;;;;18.30;91.50;;;;;;5050037;28;19924;-76
2023/08/30 13:18:15;;;;;;;;;;;18.40;91.50;;;;;;5049547;28;19956;-76
2023/08/30 13:20:41;;;;;;;;;;;18.30;91.50;;;;;;5037951;28;19925;-76
2023/08/30 13:23:06;;;;;;;;;;;18.40;91.50;;;;;;5047662;28;20430;-76
2023/08/30 13:25:32;;;;;;;;;;;18.30;91.40;;;;;;5049386;28;19919;-76
2023/08/30 13:27:57;;;;;;;;;;;18.40;91.50;;;;;;5049601;28;19921;-76
2023/08/30 13:30:23;;;;;;;;;;;18.30;91.50;;;;;;5049623;28;19912;-76
2023/08/30 13:32:48;;;;;;;;;;;18.30;91.60;;;;;;5048408;28;20348;-76
2023/08/30 13:35:14;;;;;;;;;;;18.30;91.60;;;;;;5049319;28;19917;-76
2023/08/30 13:37:39;;;;;;;;;;;18.30;91.50;;;;;;5047851;28;19924;-76
2023/08/30 13:40:05;;;;;;;;;;;18.20;91.60;;;;;;5048005;28;19963;-76
2023/08/30 13:42:32;;;;;;;;;;;18.20;91.60;;;;;;5031415;28;19935;-76
2023/08/30 13:44:57;;;;;;;;;;;18.20;91.60;;;;;;5031660;28;20003;-75
2023/08/30 13:47:23;;;;;;;;;;;18.20;91.70;;;;;;5049536;28;20476;-75
2023/08/30 13:49:48;;;;;;;;;;;18.20;91.70;;;;;;5049015;28;20293;-75
2023/08/30 13:52:14;;;;;;;;;;;18.20;91.70;;;;;;5048072;28;19909;-75
2023/08/30 13:54:40;;;;;;;;;;;18.10;91.80;;;;;;5048929;28;19995;-76
2023/08/30 13:57:05;;;;;;;;;;;18.20;91.70;;;;;;5032375;28;20016;-76
2023/08/30 13:59:31;;;;;;;;;;;18.10;91.70;;;;;;5044945;28;19919;-76
2023/08/30 14:01:58;;;;;;;;;;;18.10;91.60;;;;;;5049445;28;19917;-75
2023/08/30 14:04:24;;;;;;;;;;;18.10;91.70;;;;;;5047005;28;20371;-75
2023/08/30 14:06:50;;;;;;;;;;;18.10;91.70;;;;;;5047902;28;19919;-76
2023/08/30 14:09:15;;;;;;;;;;;18.10;91.70;;;;;;5048953;28;19908;-75